Time;durP1;ratioP1;P1;durP2;ratioP2;P2;SDS_P1;SDS_P2;PMS_P1;PMS_P2;Temp;Humidity;BMP_temperature;BMP_pressure;BME280_temperature;BME280_humidity;BME280_pressure;Samples;Min_cycle;Max_cycle;Signal;HPM_P1;HPM_P2
2021/03/11 00:01:53;;;;;;;;;;;7.70;65.80;;;;;;5101568;28;19908;-69
2021/03/11 00:04:19;;;;;;;;;;;7.80;65.40;;;;;;5109413;28;19965;-69
2021/03/11 00:06:45;;;;;;;;;;;7.80;64.90;;;;;;5108563;28;19945;-68
2021/03/11 00:09:10;;;;;;;;;;;7.90;64.80;;;;;;5112541;28;19955;-69
2021/03/11 00:11:39;;;;;;;;;;;7.90;65.10;;;;;;5093238;28;20186;-69
2021/03/11 00:14:04;;;;;;;;;;;7.90;65.20;;;;;;5114731;28;20002;-69
2021/03/11 00:16:30;;;;;;;;;;;7.90;65.00;;;;;;5108279;28;20035;-68
2021/03/11 00:18:58;;;;;;;;;;;7.90;65.10;;;;;;5113850;28;19966;-69
2021/03/11 00:21:24;;;;;;;;;;;7.80;65.00;;;;;;5092255;28;20015;-68
2021/03/11 00:23:50;;;;;;;;;;;7.80;65.00;;;;;;5113405;28;20375;-67
2021/03/11 00:26:17;;;;;;;;;;;7.90;64.80;;;;;;5112143;28;19912;-67
2021/03/11 00:28:43;;;;;;;;;;;7.90;64.80;;;;;;5107009;28;19912;-67
2021/03/11 00:31:09;;;;;;;;;;;8.00;64.30;;;;;;5099622;28;19985;-68
2021/03/11 00:33:35;;;;;;;;;;;8.00;64.60;;;;;;5103641;28;19930;-69
2021/03/11 00:36:00;;;;;;;;;;;7.90;64.70;;;;;;5105830;28;20003;-68
2021/03/11 00:38:26;;;;;;;;;;;7.90;64.40;;;;;;5132396;27;19915;-68
2021/03/11 00:40:51;;;;;;;;;;;7.90;64.60;;;;;;5098431;28;20005;-67
2021/03/11 00:43:17;;;;;;;;;;;7.90;64.20;;;;;;5110263;28;19962;-67
2021/03/11 00:45:47;;;;;;;;;;;7.90;63.70;;;;;;5110104;28;19947;-68
2021/03/11 00:48:12;;;;;;;;;;;7.90;63.30;;;;;;5110454;28;19927;-70
2021/03/11 00:50:38;;;;;;;;;;;7.90;62.70;;;;;;5099305;28;19919;-69
2021/03/11 00:53:03;;;;;;;;;;;8.00;62.10;;;;;;5115031;28;20003;-69
2021/03/11 00:55:29;;;;;;;;;;;8.00;62.40;;;;;;5114577;28;19951;-69
2021/03/11 00:57:54;;;;;;;;;;;8.00;62.40;;;;;;5091629;28;19920;-70
2021/03/11 01:00:21;;;;;;;;;;;7.90;62.80;;;;;;5113388;28;19919;-69
2021/03/11 01:02:49;;;;;;;;;;;8.00;62.40;;;;;;5111075;27;19916;-69
2021/03/11 01:05:41;;;;;;;;;;;8.00;62.40;;;;;;5103313;28;19923;-68
2021/03/11 01:08:06;;;;;;;;;;;8.00;62.80;;;;;;5101134;28;20315;-69
2021/03/11 01:10:33;;;;;;;;;;;8.00;63.00;;;;;;5106989;28;19924;-69
2021/03/11 01:12:58;;;;;;;;;;;8.00;63.20;;;;;;5100569;28;19931;-69
2021/03/11 01:15:25;;;;;;;;;;;7.90;63.30;;;;;;5114287;28;19920;-68
2021/03/11 01:17:51;;;;;;;;;;;7.90;63.70;;;;;;5116222;28;19915;-69
2021/03/11 01:20:18;;;;;;;;;;;7.80;64.20;;;;;;5116757;28;19933;-70
2021/03/11 01:22:46;;;;;;;;;;;7.80;64.70;;;;;;5114582;28;19916;-67
2021/03/11 01:25:12;;;;;;;;;;;7.70;64.90;;;;;;5114137;28;20229;-69
2021/03/11 01:27:37;;;;;;;;;;;7.70;65.20;;;;;;5116133;28;19934;-69
2021/03/11 01:30:07;;;;;;;;;;;7.70;65.50;;;;;;5096602;28;19970;-70
2021/03/11 01:32:35;;;;;;;;;;;7.60;66.10;;;;;;5089295;28;19916;-69
2021/03/11 01:35:01;;;;;;;;;;;7.50;66.60;;;;;;5116293;28;19963;-69
2021/03/11 01:37:26;;;;;;;;;;;7.60;66.60;;;;;;5115537;28;20262;-70
2021/03/11 01:39:52;;;;;;;;;;;7.50;67.10;;;;;;5116413;28;19912;-69
2021/03/11 01:42:17;;;;;;;;;;;7.50;67.30;;;;;;5112555;28;19912;-68
2021/03/11 01:44:43;;;;;;;;;;;7.40;67.60;;;;;;5104590;28;19908;-69
2021/03/11 01:47:08;;;;;;;;;;;7.40;67.80;;;;;;5110121;28;19927;-68
2021/03/11 01:49:34;;;;;;;;;;;7.40;68.10;;;;;;5115709;28;19912;-67
2021/03/11 01:52:01;;;;;;;;;;;7.40;68.50;;;;;;5097616;28;19919;-67
2021/03/11 01:54:28;;;;;;;;;;;7.40;68.90;;;;;;5101878;28;20287;-67
2021/03/11 01:56:54;;;;;;;;;;;7.40;69.40;;;;;;5099922;28;19916;-68
2021/03/11 01:59:20;;;;;;;;;;;7.40;69.50;;;;;;5115147;28;19919;-67
2021/03/11 02:01:51;;;;;;;;;;;7.40;69.70;;;;;;5111966;28;19933;-68
2021/03/11 02:04:17;;;;;;;;;;;7.40;69.70;;;;;;5099423;28;20311;-68
2021/03/11 02:06:43;;;;;;;;;;;7.50;70.10;;;;;;5115024;28;19912;-69
2021/03/11 02:09:08;;;;;;;;;;;7.60;69.90;;;;;;5110978;28;19912;-68
2021/03/11 02:11:34;;;;;;;;;;;7.60;70.00;;;;;;5115595;28;20227;-69
2021/03/11 02:14:10;;;;;;;;;;;7.60;70.10;;;;;;5115249;28;19911;-68
2021/03/11 02:16:38;;;;;;;;;;;7.60;70.10;;;;;;5112395;28;19920;-69
2021/03/11 02:19:27;;;;;;;;;;;7.70;69.90;;;;;;5102023;28;20362;-69
2021/03/11 02:22:11;;;;;;;;;;;7.80;69.20;;;;;;5099637;28;20311;-69
2021/03/11 02:24:46;;;;;;;;;;;7.80;69.50;;;;;;5109828;28;19908;-69
2021/03/11 02:27:15;;;;;;;;;;;7.80;68.90;;;;;;5114357;28;19959;-69
2021/03/11 02:29:41;;;;;;;;;;;7.90;68.80;;;;;;5113767;28;19938;-69
2021/03/11 02:32:09;;;;;;;;;;;8.00;68.40;;;;;;5107116;28;20062;-68
2021/03/11 02:34:37;;;;;;;;;;;8.20;67.70;;;;;;5114934;28;19912;-69
2021/03/11 02:37:05;;;;;;;;;;;8.20;67.60;;;;;;5114961;28;19978;-69
2021/03/11 02:39:33;;;;;;;;;;;8.20;67.40;;;;;;5115116;28;19919;-69
2021/03/11 02:41:59;;;;;;;;;;;8.30;67.30;;;;;;5114537;28;20352;-68
2021/03/11 02:44:25;;;;;;;;;;;8.30;67.10;;;;;;5104444;28;20003;-69
2021/03/11 02:46:51;;;;;;;;;;;8.30;67.10;;;;;;5111789;28;19920;-69
2021/03/11 02:49:19;;;;;;;;;;;8.30;66.90;;;;;;5112654;28;19931;-69
2021/03/11 02:51:48;;;;;;;;;;;8.30;66.70;;;;;;5115193;28;20373;-69
2021/03/11 02:54:14;;;;;;;;;;;8.40;66.60;;;;;;5110231;28;19919;-69
2021/03/11 02:56:40;;;;;;;;;;;8.40;66.70;;;;;;5116846;28;20003;-67
2021/03/11 02:59:06;;;;;;;;;;;8.40;66.80;;;;;;5116060;28;19999;-69
2021/03/11 03:01:31;;;;;;;;;;;8.50;66.50;;;;;;5115863;28;20197;-69
2021/03/11 03:03:57;;;;;;;;;;;8.50;66.80;;;;;;5117788;27;19951;-68
2021/03/11 03:06:23;;;;;;;;;;;8.50;66.90;;;;;;5118959;28;19921;-69
2021/03/11 03:08:49;;;;;;;;;;;8.60;67.30;;;;;;5119483;28;19914;-68
2021/03/11 03:11:15;;;;;;;;;;;8.60;66.90;;;;;;5117969;28;19927;-68
2021/03/11 03:13:41;;;;;;;;;;;8.60;67.10;;;;;;5097031;28;19916;-69
2021/03/11 03:16:07;;;;;;;;;;;8.50;67.50;;;;;;5095216;28;19962;-68
2021/03/11 03:18:34;;;;;;;;;;;8.50;67.80;;;;;;5115197;28;19947;-68
2021/03/11 03:21:03;;;;;;;;;;;8.50;68.10;;;;;;5117801;28;20381;-69
2021/03/11 03:23:29;;;;;;;;;;;8.60;68.10;;;;;;5110277;28;19919;-68
2021/03/11 03:25:54;;;;;;;;;;;8.70;68.10;;;;;;5118596;28;20315;-69
2021/03/11 03:28:20;;;;;;;;;;;8.70;68.10;;;;;;5111632;28;20192;-69
2021/03/11 03:30:46;;;;;;;;;;;8.70;68.10;;;;;;5098750;28;19923;-68
2021/03/11 03:33:15;;;;;;;;;;;8.70;68.40;;;;;;5104122;28;20250;-67
2021/03/11 03:35:41;;;;;;;;;;;8.70;68.30;;;;;;5115593;28;19916;-67
2021/03/11 03:38:07;;;;;;;;;;;8.70;68.60;;;;;;5112930;28;19938;-67
2021/03/11 03:40:32;;;;;;;;;;;8.70;68.20;;;;;;5119118;28;19915;-66
2021/03/11 03:42:58;;;;;;;;;;;8.80;68.10;;;;;;5116767;28;19912;-69
2021/03/11 03:45:25;;;;;;;;;;;8.70;68.50;;;;;;5094422;28;19914;-69
2021/03/11 03:47:50;;;;;;;;;;;8.70;68.50;;;;;;5114103;28;19998;-69
2021/03/11 03:50:17;;;;;;;;;;;8.60;69.90;;;;;;5104729;28;20306;-69
2021/03/11 03:52:47;;;;;;;;;;;8.50;70.80;;;;;;5117721;28;19912;-69
2021/03/11 03:55:13;;;;;;;;;;;8.40;71.20;;;;;;5097406;28;19919;-69
2021/03/11 03:57:43;;;;;;;;;;;8.50;70.30;;;;;;5101819;28;19918;-68
2021/03/11 04:00:10;;;;;;;;;;;8.50;70.30;;;;;;5116247;28;19912;-68
2021/03/11 04:02:36;;;;;;;;;;;8.60;69.50;;;;;;5110922;28;19972;-68
2021/03/11 04:05:02;;;;;;;;;;;8.60;69.80;;;;;;5117622;28;19972;-69
2021/03/11 04:07:29;;;;;;;;;;;8.60;69.70;;;;;;5112608;28;20331;-69
2021/03/11 04:09:55;;;;;;;;;;;8.60;69.60;;;;;;5117603;28;19959;-69
2021/03/11 04:12:20;;;;;;;;;;;8.60;69.70;;;;;;5097946;28;19924;-69
2021/03/11 04:14:47;;;;;;;;;;;8.60;70.10;;;;;;5101300;28;19947;-68
2021/03/11 04:17:12;;;;;;;;;;;8.60;70.40;;;;;;5116816;28;19916;-69
2021/03/11 04:19:38;;;;;;;;;;;8.60;70.60;;;;;;5117623;28;20016;-69
2021/03/11 04:22:04;;;;;;;;;;;8.60;70.80;;;;;;5117966;28;19949;-69
2021/03/11 04:24:30;;;;;;;;;;;8.60;70.60;;;;;;5116068;28;19918;-68
2021/03/11 04:26:58;;;;;;;;;;;8.60;70.50;;;;;;5105623;28;20262;-68
2021/03/11 04:29:24;;;;;;;;;;;8.60;70.80;;;;;;5116811;28;19911;-67
2021/03/11 04:31:50;;;;;;;;;;;8.60;71.00;;;;;;5096569;28;20267;-68
2021/03/11 04:34:15;;;;;;;;;;;8.60;71.60;;;;;;5108781;28;19926;-68
2021/03/11 04:36:41;;;;;;;;;;;8.60;72.00;;;;;;5091391;28;20323;-69
2021/03/11 04:39:07;;;;;;;;;;;8.60;72.10;;;;;;5102730;28;19919;-68
2021/03/11 04:41:32;;;;;;;;;;;8.50;73.70;;;;;;5098773;28;19938;-68
2021/03/11 04:44:00;;;;;;;;;;;8.30;75.50;;;;;;5117024;28;20304;-69
2021/03/11 04:46:26;;;;;;;;;;;8.30;75.80;;;;;;5115922;28;19923;-67
2021/03/11 04:48:52;;;;;;;;;;;8.40;77.50;;;;;;5100599;28;19916;-69
2021/03/11 04:51:17;;;;;;;;;;;8.40;78.30;;;;;;5097400;28;20362;-69
2021/03/11 04:53:43;;;;;;;;;;;8.40;78.70;;;;;;5111035;28;20308;-67
2021/03/11 04:56:10;;;;;;;;;;;8.40;78.80;;;;;;5117076;28;20001;-69
2021/03/11 04:58:37;;;;;;;;;;;8.40;79.60;;;;;;5116671;28;19954;-69
2021/03/11 05:01:05;;;;;;;;;;;8.40;80.10;;;;;;5107144;28;20332;-68
2021/03/11 05:03:30;;;;;;;;;;;8.30;80.50;;;;;;5110797;28;19912;-68
2021/03/11 05:05:56;;;;;;;;;;;8.30;81.10;;;;;;5110823;28;19970;-69
2021/03/11 05:08:21;;;;;;;;;;;8.30;81.70;;;;;;5112221;28;19919;-68
2021/03/11 05:10:47;;;;;;;;;;;8.30;82.00;;;;;;5110447;28;19916;-69
2021/03/11 05:13:12;;;;;;;;;;;8.30;82.20;;;;;;5116542;28;19911;-68
2021/03/11 05:15:38;;;;;;;;;;;8.30;82.50;;;;;;5114297;28;19924;-68
2021/03/11 05:18:03;;;;;;;;;;;8.20;82.80;;;;;;5095129;28;19912;-69
2021/03/11 05:20:29;;;;;;;;;;;8.20;82.90;;;;;;5113800;28;19923;-69
2021/03/11 05:22:55;;;;;;;;;;;8.20;83.10;;;;;;5116644;28;19957;-68
2021/03/11 05:25:20;;;;;;;;;;;8.20;83.70;;;;;;5116800;28;19915;-68
2021/03/11 05:27:46;;;;;;;;;;;8.20;84.00;;;;;;5106781;28;20300;-69
2021/03/11 05:30:12;;;;;;;;;;;8.10;84.40;;;;;;5108654;28;19924;-69
2021/03/11 05:32:38;;;;;;;;;;;8.10;84.50;;;;;;5105640;27;19919;-68
2021/03/11 05:35:05;;;;;;;;;;;8.10;84.40;;;;;;5101966;28;20318;-69
2021/03/11 05:37:30;;;;;;;;;;;8.10;84.30;;;;;;5111129;28;19930;-67
2021/03/11 05:39:58;;;;;;;;;;;8.10;84.10;;;;;;5114118;28;19908;-69
2021/03/11 05:42:23;;;;;;;;;;;8.10;84.60;;;;;;5114632;28;20040;-68
2021/03/11 05:44:50;;;;;;;;;;;8.10;84.80;;;;;;5107423;28;20360;-68
2021/03/11 05:47:16;;;;;;;;;;;8.10;84.60;;;;;;5103443;28;20304;-69
2021/03/11 05:49:42;;;;;;;;;;;8.10;84.80;;;;;;5106148;28;19916;-69
2021/03/11 05:52:08;;;;;;;;;;;8.10;85.20;;;;;;5106106;28;19919;-68
2021/03/11 05:54:36;;;;;;;;;;;8.10;85.50;;;;;;5094945;28;19949;-67
2021/03/11 05:57:04;;;;;;;;;;;8.10;85.30;;;;;;5111900;28;19915;-67
2021/03/11 05:59:30;;;;;;;;;;;8.10;85.70;;;;;;5107612;28;20068;-67
2021/03/11 06:01:56;;;;;;;;;;;8.10;85.90;;;;;;5115078;28;20002;-68
2021/03/11 06:04:23;;;;;;;;;;;8.10;86.00;;;;;;5098341;28;19915;-69
2021/03/11 06:06:49;;;;;;;;;;;8.10;86.30;;;;;;5102872;28;19912;-68
2021/03/11 06:09:18;;;;;;;;;;;8.20;86.30;;;;;;5110577;28;19912;-68
2021/03/11 06:11:44;;;;;;;;;;;8.20;86.60;;;;;;5108986;28;19947;-68
2021/03/11 06:14:11;;;;;;;;;;;8.20;86.80;;;;;;5100781;28;19955;-69
2021/03/11 06:16:38;;;;;;;;;;;8.20;86.60;;;;;;5104034;28;19933;-69
2021/03/11 06:19:03;;;;;;;;;;;8.30;86.30;;;;;;5094746;28;19965;-67
2021/03/11 06:21:30;;;;;;;;;;;8.30;86.00;;;;;;5114523;28;19912;-68
2021/03/11 06:23:55;;;;;;;;;;;8.40;85.50;;;;;;5097191;28;20213;-69
2021/03/11 06:26:21;;;;;;;;;;;8.50;84.90;;;;;;5098230;28;19915;-69
2021/03/11 06:28:46;;;;;;;;;;;8.50;84.90;;;;;;5119768;28;19915;-69
2021/03/11 06:31:19;;;;;;;;;;;8.50;85.00;;;;;;5119024;28;20275;-69
2021/03/11 06:33:44;;;;;;;;;;;8.50;84.90;;;;;;5102427;28;19908;-69
2021/03/11 06:36:14;;;;;;;;;;;8.50;84.90;;;;;;5120375;28;19939;-69
2021/03/11 06:38:39;;;;;;;;;;;8.50;84.80;;;;;;5101726;28;20307;-69
2021/03/11 06:41:05;;;;;;;;;;;8.60;84.30;;;;;;5120298;28;20045;-68
2021/03/11 06:43:33;;;;;;;;;;;8.60;83.80;;;;;;5120020;28;19939;-69
2021/03/11 06:46:09;;;;;;;;;;;8.70;83.40;;;;;;5118974;28;19915;-69
2021/03/11 06:48:34;;;;;;;;;;;8.70;82.90;;;;;;5119288;28;19919;-69
2021/03/11 06:51:01;;;;;;;;;;;8.80;82.70;;;;;;5119930;28;19912;-68
2021/03/11 06:53:27;;;;;;;;;;;8.80;82.50;;;;;;5113905;28;19941;-68
2021/03/11 06:55:53;;;;;;;;;;;8.80;82.50;;;;;;5100174;28;19912;-68
2021/03/11 06:58:22;;;;;;;;;;;8.80;82.40;;;;;;5107161;28;19919;-68
2021/03/11 07:01:01;;;;;;;;;;;8.90;82.10;;;;;;5100751;28;19912;-69
2021/03/11 07:03:36;;;;;;;;;;;9.00;81.90;;;;;;5119639;28;20014;-69
2021/03/11 07:06:01;;;;;;;;;;;9.00;81.60;;;;;;5119489;28;19907;-69
2021/03/11 07:08:27;;;;;;;;;;;9.10;81.40;;;;;;5119759;28;19918;-69
2021/03/11 07:11:02;;;;;;;;;;;9.10;81.20;;;;;;5119529;28;19916;-69
2021/03/11 07:13:37;;;;;;;;;;;9.20;81.20;;;;;;5119608;28;20322;-69
2021/03/11 07:16:10;;;;;;;;;;;9.20;81.00;;;;;;5118270;28;19927;-69
2021/03/11 07:18:35;;;;;;;;;;;9.20;81.00;;;;;;5117734;28;20010;-70
2021/03/11 07:21:02;;;;;;;;;;;9.30;80.90;;;;;;5119628;28;19959;-69
2021/03/11 07:23:28;;;;;;;;;;;9.30;80.80;;;;;;5092947;28;20223;-69
2021/03/11 07:25:54;;;;;;;;;;;9.30;80.90;;;;;;5108228;28;20331;-69
2021/03/11 07:28:26;;;;;;;;;;;9.30;80.80;;;;;;5119344;28;19912;-69
2021/03/11 07:30:52;;;;;;;;;;;9.40;80.90;;;;;;5117902;28;19965;-68
2021/03/11 07:33:21;;;;;;;;;;;9.50;80.50;;;;;;5119382;28;19943;-69
2021/03/11 07:35:48;;;;;;;;;;;9.50;80.40;;;;;;5119235;28;19912;-69
2021/03/11 07:38:21;;;;;;;;;;;9.50;80.40;;;;;;5118612;28;19908;-70
2021/03/11 07:40:47;;;;;;;;;;;9.60;80.40;;;;;;5118782;28;19912;-68
2021/03/11 07:43:14;;;;;;;;;;;9.70;80.30;;;;;;5119174;28;19908;-69
2021/03/11 07:45:40;;;;;;;;;;;9.80;80.30;;;;;;5117670;28;19922;-69
2021/03/11 07:48:05;;;;;;;;;;;9.80;80.30;;;;;;5118495;28;19912;-70
2021/03/11 07:50:31;;;;;;;;;;;9.80;80.30;;;;;;5118441;28;19923;-69
2021/03/11 07:52:58;;;;;;;;;;;9.90;80.30;;;;;;5118233;28;20012;-69
2021/03/11 07:55:25;;;;;;;;;;;9.90;80.30;;;;;;5108954;28;19913;-70
2021/03/11 07:57:50;;;;;;;;;;;10.00;80.10;;;;;;5080443;28;20014;-69
2021/03/11 08:00:16;;;;;;;;;;;10.00;79.90;;;;;;5110258;28;20061;-69
2021/03/11 08:02:44;;;;;;;;;;;10.00;80.20;;;;;;5118721;28;20200;-69
2021/03/11 08:05:10;;;;;;;;;;;10.00;80.20;;;;;;5117562;28;19919;-69
2021/03/11 08:07:36;;;;;;;;;;;10.10;80.10;;;;;;5118094;28;19908;-70
2021/03/11 08:10:02;;;;;;;;;;;10.10;80.30;;;;;;5118168;28;20021;-69
2021/03/11 08:12:27;;;;;;;;;;;10.10;80.50;;;;;;5118484;28;19915;-70
2021/03/11 08:14:53;;;;;;;;;;;10.10;80.40;;;;;;5116921;28;20160;-69
2021/03/11 08:17:37;;;;;;;;;;;10.20;80.40;;;;;;5111855;28;20266;-68
2021/03/11 08:20:03;;;;;;;;;;;10.30;80.00;;;;;;5106990;28;19957;-69
2021/03/11 08:22:48;;;;;;;;;;;10.30;80.10;;;;;;5118342;28;19937;-69
2021/03/11 08:25:36;;;;;;;;;;;10.40;80.10;;;;;;5113113;28;19916;-69
2021/03/11 08:28:10;;;;;;;;;;;10.60;79.50;;;;;;5097884;28;19923;-68
2021/03/11 08:30:43;;;;;;;;;;;10.70;79.40;;;;;;5098935;28;19916;-69
2021/03/11 08:33:12;;;;;;;;;;;10.80;79.10;;;;;;5111170;28;19919;-69
2021/03/11 08:35:38;;;;;;;;;;;10.90;78.80;;;;;;5117914;28;19911;-70
2021/03/11 08:38:19;;;;;;;;;;;11.00;78.80;;;;;;5100047;28;19930;-69
2021/03/11 08:40:46;;;;;;;;;;;10.90;78.80;;;;;;5117680;28;19951;-69
2021/03/11 08:43:31;;;;;;;;;;;10.90;79.20;;;;;;5099765;28;19994;-69
2021/03/11 08:45:56;;;;;;;;;;;10.90;79.30;;;;;;5097744;28;20215;-69
2021/03/11 08:48:26;;;;;;;;;;;11.00;79.00;;;;;;5116885;28;19912;-69
2021/03/11 08:50:53;;;;;;;;;;;11.00;79.20;;;;;;5116639;28;19916;-70
2021/03/11 08:53:37;;;;;;;;;;;11.10;78.80;;;;;;5117851;28;20064;-69
2021/03/11 08:56:18;;;;;;;;;;;11.20;78.80;;;;;;5117247;28;19912;-69
2021/03/11 08:58:57;;;;;;;;;;;11.30;78.80;;;;;;5117562;28;19908;-69
2021/03/11 09:01:28;;;;;;;;;;;11.40;78.80;;;;;;5116232;28;19911;-69
2021/03/11 09:03:54;;;;;;;;;;;11.20;79.70;;;;;;5099635;28;20243;-68
2021/03/11 09:06:40;;;;;;;;;;;11.30;79.50;;;;;;5117190;28;19935;-68
2021/03/11 09:09:05;;;;;;;;;;;11.30;79.50;;;;;;5117401;28;19937;-68
2021/03/11 09:11:31;;;;;;;;;;;11.30;79.50;;;;;;5116985;28;19916;-67
2021/03/11 09:13:56;;;;;;;;;;;11.20;79.60;;;;;;5098757;28;19912;-67
2021/03/11 09:16:23;;;;;;;;;;;11.30;79.60;;;;;;5108639;28;19920;-70
2021/03/11 09:18:52;;;;;;;;;;;11.60;79.00;;;;;;5107363;28;19947;-69
2021/03/11 09:21:18;;;;;;;;;;;11.60;78.30;;;;;;5115204;28;19912;-70
2021/03/11 09:23:43;;;;;;;;;;;11.60;78.60;;;;;;5116976;28;19920;-70
2021/03/11 09:26:24;;;;;;;;;;;11.70;78.50;;;;;;5116752;28;19926;-70
2021/03/11 09:28:50;;;;;;;;;;;11.80;77.90;;;;;;5117005;28;20011;-70
2021/03/11 09:31:25;;;;;;;;;;;11.90;77.80;;;;;;5115605;28;20030;-69
2021/03/11 09:33:51;;;;;;;;;;;12.00;77.80;;;;;;5117021;28;19915;-69
2021/03/11 09:36:17;;;;;;;;;;;12.10;77.50;;;;;;5119959;27;20299;-69
2021/03/11 09:38:43;;;;;;;;;;;12.60;76.30;;;;;;5089565;28;19912;-69
2021/03/11 09:41:11;;;;;;;;;;;13.00;75.40;;;;;;5082123;28;19918;-70
2021/03/11 09:43:38;;;;;;;;;;;13.30;74.90;;;;;;5109406;28;19912;-69
2021/03/11 09:46:08;;;;;;;;;;;13.40;74.50;;;;;;5103110;28;19918;-69
2021/03/11 09:48:34;;;;;;;;;;;13.70;73.60;;;;;;5107628;28;19933;-69
2021/03/11 09:51:01;;;;;;;;;;;13.80;73.80;;;;;;5097210;28;19923;-69
2021/03/11 09:53:34;;;;;;;;;;;13.40;74.60;;;;;;5116135;28;19914;-70
2021/03/11 09:56:00;;;;;;;;;;;13.50;74.70;;;;;;5096449;28;19908;-70
2021/03/11 09:58:25;;;;;;;;;;;13.40;74.70;;;;;;5101098;28;19912;-69
2021/03/11 10:00:51;;;;;;;;;;;13.00;76.00;;;;;;5076799;28;20355;-69
2021/03/11 10:03:18;;;;;;;;;;;13.00;76.10;;;;;;5106242;28;20220;-69
2021/03/11 10:05:47;;;;;;;;;;;13.00;76.30;;;;;;5116512;28;19911;-69
2021/03/11 10:08:30;;;;;;;;;;;13.10;76.70;;;;;;5116445;28;19916;-69
2021/03/11 10:10:59;;;;;;;;;;;13.10;76.60;;;;;;5116548;28;20299;-69
2021/03/11 10:13:54;;;;;;;;;;;12.80;78.00;;;;;;5115507;28;20284;-69
2021/03/11 10:16:31;;;;;;;;;;;13.00;77.30;;;;;;5097243;28;19924;-70
2021/03/11 10:19:01;;;;;;;;;;;13.00;77.10;;;;;;5116281;28;19912;-70
2021/03/11 10:21:26;;;;;;;;;;;12.80;77.90;;;;;;5114800;28;19919;-69
2021/03/11 10:23:52;;;;;;;;;;;13.10;77.60;;;;;;5116321;28;20288;-69
2021/03/11 10:26:19;;;;;;;;;;;12.90;77.90;;;;;;5114913;28;19919;-69
2021/03/11 10:28:45;;;;;;;;;;;12.90;78.10;;;;;;5116101;28;19912;-69
2021/03/11 10:31:11;;;;;;;;;;;13.00;77.80;;;;;;5114720;28;20254;-70
2021/03/11 10:33:38;;;;;;;;;;;13.10;77.70;;;;;;5116305;28;19907;-69
2021/03/11 10:36:11;;;;;;;;;;;13.10;77.60;;;;;;5116019;28;19912;-69
2021/03/11 10:38:37;;;;;;;;;;;13.20;77.70;;;;;;5116482;28;19939;-69
2021/03/11 10:41:15;;;;;;;;;;;13.10;77.80;;;;;;5115916;28;19985;-69
2021/03/11 10:43:42;;;;;;;;;;;13.10;78.00;;;;;;5115082;28;20010;-70
2021/03/11 10:46:08;;;;;;;;;;;13.10;78.50;;;;;;5107311;28;19918;-69
2021/03/11 10:48:49;;;;;;;;;;;13.00;78.40;;;;;;5116088;28;19908;-69
2021/03/11 10:51:21;;;;;;;;;;;13.00;78.60;;;;;;5115830;28;19916;-69
2021/03/11 10:53:47;;;;;;;;;;;13.00;79.00;;;;;;5116333;28;19915;-69
2021/03/11 10:56:12;;;;;;;;;;;13.00;79.30;;;;;;5111654;28;19912;-68
2021/03/11 10:58:39;;;;;;;;;;;12.90;79.30;;;;;;5095528;28;19915;-68
2021/03/11 11:01:13;;;;;;;;;;;12.90;79.90;;;;;;5097111;28;19920;-68
2021/03/11 11:03:39;;;;;;;;;;;12.80;80.00;;;;;;5115883;28;19908;-69
2021/03/11 11:06:05;;;;;;;;;;;12.80;80.20;;;;;;5115873;28;19912;-69
2021/03/11 11:08:30;;;;;;;;;;;12.80;80.50;;;;;;5115990;28;20003;-69
2021/03/11 11:10:56;;;;;;;;;;;12.80;80.50;;;;;;5115687;28;20272;-69
2021/03/11 11:13:22;;;;;;;;;;;12.80;80.70;;;;;;5115333;28;19912;-68
2021/03/11 11:15:48;;;;;;;;;;;12.80;81.00;;;;;;5118257;28;19923;-69
2021/03/11 11:18:14;;;;;;;;;;;12.80;81.00;;;;;;5119499;28;20387;-69
2021/03/11 11:20:39;;;;;;;;;;;12.80;81.10;;;;;;5119589;28;19961;-69
2021/03/11 11:23:08;;;;;;;;;;;12.80;81.20;;;;;;5104094;28;20220;-69
2021/03/11 11:25:33;;;;;;;;;;;12.80;81.20;;;;;;5119519;28;19915;-69
2021/03/11 11:27:59;;;;;;;;;;;12.70;81.40;;;;;;5119394;28;19908;-69
2021/03/11 11:30:24;;;;;;;;;;;12.70;81.60;;;;;;5117938;28;19922;-69
2021/03/11 11:32:51;;;;;;;;;;;12.70;81.70;;;;;;5119357;28;19961;-69
2021/03/11 11:35:16;;;;;;;;;;;12.70;82.10;;;;;;5119025;28;20316;-69
2021/03/11 11:37:43;;;;;;;;;;;12.70;82.20;;;;;;5119312;28;19907;-69
2021/03/11 11:40:10;;;;;;;;;;;12.60;82.50;;;;;;5118716;28;19916;-68
2021/03/11 11:42:35;;;;;;;;;;;12.60;83.10;;;;;;5118381;28;19965;-69
2021/03/11 11:45:01;;;;;;;;;;;12.50;84.10;;;;;;5115151;28;19999;-70
2021/03/11 11:47:26;;;;;;;;;;;12.40;85.20;;;;;;5118341;28;19916;-69
2021/03/11 11:49:52;;;;;;;;;;;12.30;86.50;;;;;;5118558;28;19938;-69
2021/03/11 11:52:17;;;;;;;;;;;12.10;87.60;;;;;;5118774;28;19908;-69
2021/03/11 11:54:43;;;;;;;;;;;11.90;88.40;;;;;;5113809;28;19938;-68
2021/03/11 11:57:08;;;;;;;;;;;11.80;89.30;;;;;;5098408;28;19962;-69
2021/03/11 11:59:34;;;;;;;;;;;11.60;90.90;;;;;;5106547;28;19977;-68
2021/03/11 12:02:00;;;;;;;;;;;11.30;92.10;;;;;;5100092;28;20306;-68
2021/03/11 12:04:25;;;;;;;;;;;11.10;92.50;;;;;;5099509;28;19911;-68
2021/03/11 12:06:51;;;;;;;;;;;10.90;94.40;;;;;;5118381;27;19912;-69
2021/03/11 12:09:16;;;;;;;;;;;10.80;94.60;;;;;;5110737;28;19999;-69
2021/03/11 12:11:42;;;;;;;;;;;10.70;95.40;;;;;;5112462;28;20219;-71
2021/03/11 12:14:08;;;;;;;;;;;10.60;95.70;;;;;;5119298;27;19912;-70
2021/03/11 12:16:33;;;;;;;;;;;10.50;95.90;;;;;;5115983;28;19939;-70
2021/03/11 12:18:59;;;;;;;;;;;10.50;96.30;;;;;;5117711;28;19912;-70
2021/03/11 12:21:24;;;;;;;;;;;10.50;96.30;;;;;;5115275;28;20197;-69
2021/03/11 12:23:50;;;;;;;;;;;10.50;96.00;;;;;;5099852;28;20327;-70
2021/03/11 12:26:17;;;;;;;;;;;10.40;96.10;;;;;;5116708;28;19972;-70
2021/03/11 12:28:43;;;;;;;;;;;10.40;96.40;;;;;;5117890;28;19919;-70
2021/03/11 12:31:08;;;;;;;;;;;10.40;96.40;;;;;;5116097;28;20220;-71
2021/03/11 12:33:34;;;;;;;;;;;10.30;96.30;;;;;;5117014;28;19912;-70
2021/03/11 12:36:00;;;;;;;;;;;10.40;96.60;;;;;;5117113;28;19918;-70
2021/03/11 12:38:25;;;;;;;;;;;10.50;96.60;;;;;;5116435;28;20304;-69
2021/03/11 12:40:51;;;;;;;;;;;10.50;96.90;;;;;;5112920;28;20224;-68
2021/03/11 12:43:20;;;;;;;;;;;10.50;97.00;;;;;;5113120;28;19912;-69
2021/03/11 12:45:46;;;;;;;;;;;10.50;96.90;;;;;;5114619;28;19920;-67
2021/03/11 12:48:11;;;;;;;;;;;10.50;97.10;;;;;;5111092;28;19965;-67
2021/03/11 12:50:37;;;;;;;;;;;10.50;96.60;;;;;;5117728;27;19916;-67
2021/03/11 12:53:03;;;;;;;;;;;10.40;96.90;;;;;;5116234;28;19908;-67
2021/03/11 12:55:29;;;;;;;;;;;10.40;97.40;;;;;;5115297;28;20002;-67
2021/03/11 12:57:54;;;;;;;;;;;10.40;96.70;;;;;;5116698;28;20671;-68
2021/03/11 13:00:20;;;;;;;;;;;10.30;97.10;;;;;;5113943;27;19965;-67
2021/03/11 13:02:47;;;;;;;;;;;10.30;97.30;;;;;;5114452;28;20266;-68
2021/03/11 13:05:12;;;;;;;;;;;10.30;96.90;;;;;;5116524;28;19999;-68
2021/03/11 13:07:38;;;;;;;;;;;10.30;97.10;;;;;;5116131;28;19955;-68
2021/03/11 13:10:04;;;;;;;;;;;10.30;97.70;;;;;;5116754;28;19916;-68
2021/03/11 13:12:30;;;;;;;;;;;10.30;97.20;;;;;;5116066;28;19919;-68
2021/03/11 13:14:55;;;;;;;;;;;10.30;97.40;;;;;;5096457;28;19931;-68
2021/03/11 13:17:22;;;;;;;;;;;10.30;97.20;;;;;;5116400;28;20347;-68
2021/03/11 13:19:47;;;;;;;;;;;10.20;97.40;;;;;;5116871;28;20312;-68
2021/03/11 13:22:13;;;;;;;;;;;10.30;97.20;;;;;;5116226;28;19923;-68
2021/03/11 13:24:40;;;;;;;;;;;10.30;97.00;;;;;;5116276;28;20364;-68
2021/03/11 13:27:06;;;;;;;;;;;10.40;97.70;;;;;;5122247;27;20331;-67
2021/03/11 13:29:32;;;;;;;;;;;10.50;97.70;;;;;;5115150;28;19931;-67
2021/03/11 13:31:57;;;;;;;;;;;10.50;97.40;;;;;;5114442;28;19923;-67
2021/03/11 13:34:23;;;;;;;;;;;10.50;97.30;;;;;;5112235;28;19994;-67
2021/03/11 13:36:48;;;;;;;;;;;10.50;97.40;;;;;;5114534;28;19916;-68
2021/03/11 13:39:14;;;;;;;;;;;10.50;97.10;;;;;;5116423;28;19912;-68
2021/03/11 13:41:40;;;;;;;;;;;10.60;96.80;;;;;;5115600;28;20209;-68
2021/03/11 13:44:06;;;;;;;;;;;10.90;97.10;;;;;;5116270;28;19908;-68
2021/03/11 13:46:32;;;;;;;;;;;11.20;97.10;;;;;;5106329;28;19915;-67
2021/03/11 13:48:57;;;;;;;;;;;11.10;95.50;;;;;;5114915;28;19934;-67
2021/03/11 13:51:23;;;;;;;;;;;11.20;96.20;;;;;;5116579;28;20328;-68
2021/03/11 13:53:48;;;;;;;;;;;11.40;95.70;;;;;;5115861;28;20047;-68
2021/03/11 13:56:15;;;;;;;;;;;11.60;95.20;;;;;;5115381;28;19998;-66
2021/03/11 13:58:40;;;;;;;;;;;11.80;94.80;;;;;;5103095;28;19942;-67
2021/03/11 14:01:06;;;;;;;;;;;12.00;94.40;;;;;;5112058;28;19915;-66
2021/03/11 14:03:31;;;;;;;;;;;12.10;93.90;;;;;;5115760;28;20006;-68
2021/03/11 14:05:57;;;;;;;;;;;12.20;94.00;;;;;;5114454;28;19999;-67
2021/03/11 14:08:22;;;;;;;;;;;12.20;92.90;;;;;;5116367;28;20006;-67
2021/03/11 14:10:48;;;;;;;;;;;12.40;93.30;;;;;;5115873;28;19961;-67
2021/03/11 14:13:13;;;;;;;;;;;12.60;93.20;;;;;;5116410;28;19934;-67
2021/03/11 14:15:39;;;;;;;;;;;13.10;92.40;;;;;;5114428;28;19988;-67
2021/03/11 14:18:05;;;;;;;;;;;12.90;91.80;;;;;;5115916;28;19981;-68
2021/03/11 14:20:30;;;;;;;;;;;12.70;91.70;;;;;;5116054;28;19958;-69
2021/03/11 14:22:56;;;;;;;;;;;12.40;93.00;;;;;;5114471;28;19957;-68
2021/03/11 14:25:21;;;;;;;;;;;12.30;93.00;;;;;;5115883;28;19907;-69